sensor_id;sensor_type;location;lat;lon;timestamp;temperature;humidity
22574;DHT22;11453;52.052;20.430;2022-08-01T00:01:00;15.80;99.90
22574;DHT22;11453;52.052;20.430;2022-08-01T00:03:25;15.80;99.90
22574;DHT22;11453;52.052;20.430;2022-08-01T00:05:51;15.80;99.90
22574;DHT22;11453;52.052;20.430;2022-08-01T00:08:17;15.80;99.90
22574;DHT22;11453;52.052;20.430;2022-08-01T00:10:42;15.80;99.90
22574;DHT22;11453;52.052;20.430;2022-08-01T00:13:08;15.70;99.90
22574;DHT22;11453;52.052;20.430;2022-08-01T00:15:34;15.70;99.90
22574;DHT22;11453;52.052;20.430;2022-08-01T00:18:00;15.70;99.90
22574;DHT22;11453;52.052;20.430;2022-08-01T00:20:26;15.60;99.90
22574;DHT22;11453;52.052;20.430;2022-08-01T00:22:52;15.60;99.90
22574;DHT22;11453;52.052;20.430;2022-08-01T00:25:17;15.60;99.90
22574;DHT22;11453;52.052;20.430;2022-08-01T00:27:43;15.50;99.90
22574;DHT22;11453;52.052;20.430;2022-08-01T00:30:09;15.50;99.90
22574;DHT22;11453;52.052;20.430;2022-08-01T00:32:35;15.50;99.90
22574;DHT22;11453;52.052;20.430;2022-08-01T00:35:00;15.50;99.90
22574;DHT22;11453;52.052;20.430;2022-08-01T00:37:26;15.40;99.90
22574;DHT22;11453;52.052;20.430;2022-08-01T00:39:52;15.40;99.90
22574;DHT22;11453;52.052;20.430;2022-08-01T00:42:18;15.40;99.90
22574;DHT22;11453;52.052;20.430;2022-08-01T00:44:45;15.40;99.90
22574;DHT22;11453;52.052;20.430;2022-08-01T00:47:10;15.30;99.90
22574;DHT22;11453;52.052;20.430;2022-08-01T00:49:36;15.30;99.90
22574;DHT22;11453;52.052;20.430;2022-08-01T00:52:03;15.20;99.90
22574;DHT22;11453;52.052;20.430;2022-08-01T00:54:30;15.20;99.90
22574;DHT22;11453;52.052;20.430;2022-08-01T00:56:56;15.20;99.90
22574;DHT22;11453;52.052;20.430;2022-08-01T00:59:22;15.20;99.90
22574;DHT22;11453;52.052;20.430;2022-08-01T01:01:49;15.20;99.90
22574;DHT22;11453;52.052;20.430;2022-08-01T01:04:15;15.20;99.90
22574;DHT22;11453;52.052;20.430;2022-08-01T01:07:19;15.20;99.90
22574;DHT22;11453;52.052;20.430;2022-08-01T01:12:33;15.10;99.90
22574;DHT22;11453;52.052;20.430;2022-08-01T01:18:20;15.10;99.90
22574;DHT22;11453;52.052;20.430;2022-08-01T01:34:20;15.10;99.90
22574;DHT22;11453;52.052;20.430;2022-08-01T01:36:48;15.10;99.90
22574;DHT22;11453;52.052;20.430;2022-08-01T01:39:15;15.10;99.90
22574;DHT22;11453;52.052;20.430;2022-08-01T01:41:43;15.10;99.90
22574;DHT22;11453;52.052;20.430;2022-08-01T01:44:10;15.10;99.90
22574;DHT22;11453;52.052;20.430;2022-08-01T01:46:37;15.10;99.90
22574;DHT22;11453;52.052;20.430;2022-08-01T01:49:03;15.10;99.90
22574;DHT22;11453;52.052;20.430;2022-08-01T01:51:31;15.10;99.90
22574;DHT22;11453;52.052;20.430;2022-08-01T01:53:59;15.10;99.90
22574;DHT22;11453;52.052;20.430;2022-08-01T01:56:27;15.10;99.90
22574;DHT22;11453;52.052;20.430;2022-08-01T01:58:59;15.10;99.90
22574;DHT22;11453;52.052;20.430;2022-08-01T02:01:28;15.00;99.90
22574;DHT22;11453;52.052;20.430;2022-08-01T02:03:56;15.00;99.90
22574;DHT22;11453;52.052;20.430;2022-08-01T02:06:24;15.00;99.90
22574;DHT22;11453;52.052;20.430;2022-08-01T02:08:52;15.00;99.90
22574;DHT22;11453;52.052;20.430;2022-08-01T02:11:20;15.00;99.90
22574;DHT22;11453;52.052;20.430;2022-08-01T02:13:57;14.90;99.90
22574;DHT22;11453;52.052;20.430;2022-08-01T02:16:26;14.90;99.90
22574;DHT22;11453;52.052;20.430;2022-08-01T02:18:53;14.90;99.90
22574;DHT22;11453;52.052;20.430;2022-08-01T02:21:30;14.90;99.90
22574;DHT22;11453;52.052;20.430;2022-08-01T02:24:45;14.80;99.90
22574;DHT22;11453;52.052;20.430;2022-08-01T02:26:51;14.80;99.90
22574;DHT22;11453;52.052;20.430;2022-08-01T02:29:33;14.80;99.90
22574;DHT22;11453;52.052;20.430;2022-08-01T02:32:02;14.80;99.90
22574;DHT22;11453;52.052;20.430;2022-08-01T02:34:29;14.70;99.90
22574;DHT22;11453;52.052;20.430;2022-08-01T02:36:58;14.70;99.90
22574;DHT22;11453;52.052;20.430;2022-08-01T02:39:26;14.70;99.90
22574;DHT22;11453;52.052;20.430;2022-08-01T02:41:57;14.70;99.90
22574;DHT22;11453;52.052;20.430;2022-08-01T02:44:26;14.70;99.90
22574;DHT22;11453;52.052;20.430;2022-08-01T02:47:02;14.70;99.90
22574;DHT22;11453;52.052;20.430;2022-08-01T02:49:35;14.70;99.90
22574;DHT22;11453;52.052;20.430;2022-08-01T02:52:05;14.60;99.90
22574;DHT22;11453;52.052;20.430;2022-08-01T02:54:33;14.60;99.90
22574;DHT22;11453;52.052;20.430;2022-08-01T02:57:00;14.50;99.90
22574;DHT22;11453;52.052;20.430;2022-08-01T02:59:27;14.50;99.90
22574;DHT22;11453;52.052;20.430;2022-08-01T03:01:57;14.60;99.90
22574;DHT22;11453;52.052;20.430;2022-08-01T03:04:24;14.60;99.90
22574;DHT22;11453;52.052;20.430;2022-08-01T03:06:54;14.50;99.90
22574;DHT22;11453;52.052;20.430;2022-08-01T03:09:21;14.60;99.90
22574;DHT22;11453;52.052;20.430;2022-08-01T03:11:48;14.50;99.90
22574;DHT22;11453;52.052;20.430;2022-08-01T03:14:16;14.50;99.90
22574;DHT22;11453;52.052;20.430;2022-08-01T03:16:44;14.50;99.90
22574;DHT22;11453;52.052;20.430;2022-08-01T03:19:12;14.50;99.90
22574;DHT22;11453;52.052;20.430;2022-08-01T03:21:40;14.50;99.90
22574;DHT22;11453;52.052;20.430;2022-08-01T03:24:10;14.50;99.90
22574;DHT22;11453;52.052;20.430;2022-08-01T03:26:38;14.50;99.90
22574;DHT22;11453;52.052;20.430;2022-08-01T03:29:06;14.50;99.90
22574;DHT22;11453;52.052;20.430;2022-08-01T03:31:36;14.50;99.90
22574;DHT22;11453;52.052;20.430;2022-08-01T03:34:04;14.40;99.90
22574;DHT22;11453;52.052;20.430;2022-08-01T03:36:32;14.40;99.90
22574;DHT22;11453;52.052;20.430;2022-08-01T03:39:01;14.40;99.90
22574;DHT22;11453;52.052;20.430;2022-08-01T03:41:33;14.40;99.90
22574;DHT22;11453;52.052;20.430;2022-08-01T03:44:11;14.40;99.90
22574;DHT22;11453;52.052;20.430;2022-08-01T03:46:50;14.30;99.90
22574;DHT22;11453;52.052;20.430;2022-08-01T03:49:20;14.30;99.90
22574;DHT22;11453;52.052;20.430;2022-08-01T03:51:48;14.30;99.90
22574;DHT22;11453;52.052;20.430;2022-08-01T03:54:17;14.30;99.90
22574;DHT22;11453;52.052;20.430;2022-08-01T03:56:46;14.30;99.90
22574;DHT22;11453;52.052;20.430;2022-08-01T03:59:15;14.30;99.90
22574;DHT22;11453;52.052;20.430;2022-08-01T04:01:44;14.30;99.90
22574;DHT22;11453;52.052;20.430;2022-08-01T04:04:10;14.30;99.90
22574;DHT22;11453;52.052;20.430;2022-08-01T04:06:42;14.30;99.90
22574;DHT22;11453;52.052;20.430;2022-08-01T04:09:10;14.30;99.90
22574;DHT22;11453;52.052;20.430;2022-08-01T04:11:37;14.30;99.90
22574;DHT22;11453;52.052;20.430;2022-08-01T04:14:03;14.30;99.90
22574;DHT22;11453;52.052;20.430;2022-08-01T04:16:29;14.30;99.90
22574;DHT22;11453;52.052;20.430;2022-08-01T04:18:55;14.30;99.90
22574;DHT22;11453;52.052;20.430;2022-08-01T04:21:25;14.30;99.90
22574;DHT22;11453;52.052;20.430;2022-08-01T04:23:56;14.30;99.90
22574;DHT22;11453;52.052;20.430;2022-08-01T04:26:24;14.30;99.90
22574;DHT22;11453;52.052;20.430;2022-08-01T04:28:52;14.20;99.90
22574;DHT22;11453;52.052;20.430;2022-08-01T04:31:20;14.20;99.90
22574;DHT22;11453;52.052;20.430;2022-08-01T04:33:49;14.20;99.90
22574;DHT22;11453;52.052;20.430;2022-08-01T04:36:18;14.20;99.90
22574;DHT22;11453;52.052;20.430;2022-08-01T04:38:46;14.20;99.90
22574;DHT22;11453;52.052;20.430;2022-08-01T04:41:13;14.20;99.90
22574;DHT22;11453;52.052;20.430;2022-08-01T04:43:40;14.20;99.90
22574;DHT22;11453;52.052;20.430;2022-08-01T04:46:07;14.20;99.90
22574;DHT22;11453;52.052;20.430;2022-08-01T04:48:36;14.20;99.90
22574;DHT22;11453;52.052;20.430;2022-08-01T04:51:03;14.20;99.90
22574;DHT22;11453;52.052;20.430;2022-08-01T04:53:29;14.30;99.90
22574;DHT22;11453;52.052;20.430;2022-08-01T04:55:57;14.30;99.90
22574;DHT22;11453;52.052;20.430;2022-08-01T04:58:23;14.40;99.90
22574;DHT22;11453;52.052;20.430;2022-08-01T05:00:49;14.40;99.90
22574;DHT22;11453;52.052;20.430;2022-08-01T05:03:15;14.50;99.90
22574;DHT22;11453;52.052;20.430;2022-08-01T05:05:41;14.50;99.90
22574;DHT22;11453;52.052;20.430;2022-08-01T05:08:07;14.50;99.90
22574;DHT22;11453;52.052;20.430;2022-08-01T05:10:33;14.60;99.90
22574;DHT22;11453;52.052;20.430;2022-08-01T05:12:58;14.60;99.90
22574;DHT22;11453;52.052;20.430;2022-08-01T05:15:24;14.70;99.90
22574;DHT22;11453;52.052;20.430;2022-08-01T05:17:50;14.70;99.90
22574;DHT22;11453;52.052;20.430;2022-08-01T05:20:16;14.70;99.90
22574;DHT22;11453;52.052;20.430;2022-08-01T05:22:41;14.80;99.90
22574;DHT22;11453;52.052;20.430;2022-08-01T05:25:08;14.90;99.90
22574;DHT22;11453;52.052;20.430;2022-08-01T05:27:34;14.90;99.90
22574;DHT22;11453;52.052;20.430;2022-08-01T05:30:07;14.90;99.90
22574;DHT22;11453;52.052;20.430;2022-08-01T05:32:32;15.00;99.90
22574;DHT22;11453;52.052;20.430;2022-08-01T05:34:58;15.10;99.90
22574;DHT22;11453;52.052;20.430;2022-08-01T05:37:24;15.10;99.90
22574;DHT22;11453;52.052;20.430;2022-08-01T05:39:50;15.10;99.90
22574;DHT22;11453;52.052;20.430;2022-08-01T05:42:16;15.20;99.90
22574;DHT22;11453;52.052;20.430;2022-08-01T05:44:41;15.20;99.90
22574;DHT22;11453;52.052;20.430;2022-08-01T05:47:07;15.30;99.90
22574;DHT22;11453;52.052;20.430;2022-08-01T05:49:33;15.30;99.90
22574;DHT22;11453;52.052;20.430;2022-08-01T05:51:59;15.40;99.90
22574;DHT22;11453;52.052;20.430;2022-08-01T05:54:26;15.40;99.90
22574;DHT22;11453;52.052;20.430;2022-08-01T05:56:52;15.50;99.90
22574;DHT22;11453;52.052;20.430;2022-08-01T05:59:17;15.50;99.90
22574;DHT22;11453;52.052;20.430;2022-08-01T06:01:43;15.60;99.90
22574;DHT22;11453;52.052;20.430;2022-08-01T06:04:09;15.60;99.90
22574;DHT22;11453;52.052;20.430;2022-08-01T06:06:34;15.60;99.90
22574;DHT22;11453;52.052;20.430;2022-08-01T06:09:00;15.70;99.90
22574;DHT22;11453;52.052;20.430;2022-08-01T06:11:26;15.80;99.90
22574;DHT22;11453;52.052;20.430;2022-08-01T06:13:51;15.80;99.90
22574;DHT22;11453;52.052;20.430;2022-08-01T06:16:17;15.80;99.90
22574;DHT22;11453;52.052;20.430;2022-08-01T06:18:43;15.90;99.90
22574;DHT22;11453;52.052;20.430;2022-08-01T06:21:08;15.90;99.90
22574;DHT22;11453;52.052;20.430;2022-08-01T06:23:34;16.00;99.90
22574;DHT22;11453;52.052;20.430;2022-08-01T06:26:00;16.00;99.90
22574;DHT22;11453;52.052;20.430;2022-08-01T06:28:25;16.00;99.90
22574;DHT22;11453;52.052;20.430;2022-08-01T06:30:51;16.10;99.90
22574;DHT22;11453;52.052;20.430;2022-08-01T06:33:17;16.20;99.90
22574;DHT22;11453;52.052;20.430;2022-08-01T06:35:42;16.20;99.90
22574;DHT22;11453;52.052;20.430;2022-08-01T06:38:08;16.30;99.90
22574;DHT22;11453;52.052;20.430;2022-08-01T06:40:34;16.30;99.90
22574;DHT22;11453;52.052;20.430;2022-08-01T06:42:59;16.30;99.90
22574;DHT22;11453;52.052;20.430;2022-08-01T06:45:25;16.40;99.90
22574;DHT22;11453;52.052;20.430;2022-08-01T06:47:52;16.50;99.90
22574;DHT22;11453;52.052;20.430;2022-08-01T06:50:18;16.50;99.90
22574;DHT22;11453;52.052;20.430;2022-08-01T06:52:44;16.60;99.90
22574;DHT22;11453;52.052;20.430;2022-08-01T06:55:10;16.60;99.90
22574;DHT22;11453;52.052;20.430;2022-08-01T06:57:36;16.60;99.90
22574;DHT22;11453;52.052;20.430;2022-08-01T07:00:06;16.60;99.90
22574;DHT22;11453;52.052;20.430;2022-08-01T07:02:36;16.70;99.90
22574;DHT22;11453;52.052;20.430;2022-08-01T07:05:03;16.70;99.90
22574;DHT22;11453;52.052;20.430;2022-08-01T07:07:30;16.80;99.90
22574;DHT22;11453;52.052;20.430;2022-08-01T07:09:55;16.80;99.90
22574;DHT22;11453;52.052;20.430;2022-08-01T07:12:21;16.80;99.90
22574;DHT22;11453;52.052;20.430;2022-08-01T07:14:47;16.90;99.90
22574;DHT22;11453;52.052;20.430;2022-08-01T07:17:12;17.00;99.90
22574;DHT22;11453;52.052;20.430;2022-08-01T07:19:38;17.00;99.90
22574;DHT22;11453;52.052;20.430;2022-08-01T07:22:04;17.10;99.90
22574;DHT22;11453;52.052;20.430;2022-08-01T07:24:29;17.10;99.90
22574;DHT22;11453;52.052;20.430;2022-08-01T07:26:55;17.10;99.90
22574;DHT22;11453;52.052;20.430;2022-08-01T07:29:23;17.20;99.90
22574;DHT22;11453;52.052;20.430;2022-08-01T07:31:51;17.20;99.90
22574;DHT22;11453;52.052;20.430;2022-08-01T07:34:18;17.30;99.90
22574;DHT22;11453;52.052;20.430;2022-08-01T07:36:44;17.40;99.90
22574;DHT22;11453;52.052;20.430;2022-08-01T07:39:09;17.50;99.90
22574;DHT22;11453;52.052;20.430;2022-08-01T07:41:35;17.50;99.90
22574;DHT22;11453;52.052;20.430;2022-08-01T07:44:01;17.60;99.90
22574;DHT22;11453;52.052;20.430;2022-08-01T07:46:26;17.70;99.90
22574;DHT22;11453;52.052;20.430;2022-08-01T07:48:52;17.70;99.90
22574;DHT22;11453;52.052;20.430;2022-08-01T07:51:18;17.80;99.90
22574;DHT22;11453;52.052;20.430;2022-08-01T07:53:43;17.80;99.90
22574;DHT22;11453;52.052;20.430;2022-08-01T07:56:09;17.80;99.90
22574;DHT22;11453;52.052;20.430;2022-08-01T07:58:35;17.90;99.90
22574;DHT22;11453;52.052;20.430;2022-08-01T08:01:00;18.00;99.90
22574;DHT22;11453;52.052;20.430;2022-08-01T08:03:26;18.00;99.90
22574;DHT22;11453;52.052;20.430;2022-08-01T08:05:52;18.10;99.90
22574;DHT22;11453;52.052;20.430;2022-08-01T08:08:18;18.10;99.90
22574;DHT22;11453;52.052;20.430;2022-08-01T08:10:44;18.20;99.90
22574;DHT22;11453;52.052;20.430;2022-08-01T08:13:09;18.30;99.90
22574;DHT22;11453;52.052;20.430;2022-08-01T08:15:35;18.40;99.90
22574;DHT22;11453;52.052;20.430;2022-08-01T08:18:03;18.40;99.90
22574;DHT22;11453;52.052;20.430;2022-08-01T08:20:28;18.40;99.90
22574;DHT22;11453;52.052;20.430;2022-08-01T08:22:55;18.50;99.90
22574;DHT22;11453;52.052;20.430;2022-08-01T08:25:21;18.60;99.90
22574;DHT22;11453;52.052;20.430;2022-08-01T08:27:47;18.60;99.90
22574;DHT22;11453;52.052;20.430;2022-08-01T08:30:13;18.70;99.90
22574;DHT22;11453;52.052;20.430;2022-08-01T08:32:39;18.70;99.90
22574;DHT22;11453;52.052;20.430;2022-08-01T08:35:06;18.70;99.90
22574;DHT22;11453;52.052;20.430;2022-08-01T08:37:33;18.70;99.90
22574;DHT22;11453;52.052;20.430;2022-08-01T08:39:58;18.70;99.90
22574;DHT22;11453;52.052;20.430;2022-08-01T08:42:24;18.80;99.90
22574;DHT22;11453;52.052;20.430;2022-08-01T08:44:50;18.80;99.90
22574;DHT22;11453;52.052;20.430;2022-08-01T08:47:17;18.90;99.90
22574;DHT22;11453;52.052;20.430;2022-08-01T08:49:44;18.90;99.90
22574;DHT22;11453;52.052;20.430;2022-08-01T08:52:11;19.00;99.90
22574;DHT22;11453;52.052;20.430;2022-08-01T08:54:38;19.10;99.90
22574;DHT22;11453;52.052;20.430;2022-08-01T08:57:06;19.10;99.90
22574;DHT22;11453;52.052;20.430;2022-08-01T08:59:32;19.20;99.90
22574;DHT22;11453;52.052;20.430;2022-08-01T09:01:58;19.20;99.90
22574;DHT22;11453;52.052;20.430;2022-08-01T09:04:25;19.20;99.90
22574;DHT22;11453;52.052;20.430;2022-08-01T09:06:51;19.30;99.90
22574;DHT22;11453;52.052;20.430;2022-08-01T09:09:17;19.40;99.90
22574;DHT22;11453;52.052;20.430;2022-08-01T09:11:43;19.40;99.90
22574;DHT22;11453;52.052;20.430;2022-08-01T09:16:40;19.60;99.90
22574;DHT22;11453;52.052;20.430;2022-08-01T09:19:27;19.60;99.90
22574;DHT22;11453;52.052;20.430;2022-08-01T09:22:01;19.70;99.90
22574;DHT22;11453;52.052;20.430;2022-08-01T09:24:28;19.80;99.90
22574;DHT22;11453;52.052;20.430;2022-08-01T09:26:54;19.90;99.90
22574;DHT22;11453;52.052;20.430;2022-08-01T09:29:27;19.90;99.90
22574;DHT22;11453;52.052;20.430;2022-08-01T09:31:53;20.00;99.90
22574;DHT22;11453;52.052;20.430;2022-08-01T09:34:28;20.00;99.90
22574;DHT22;11453;52.052;20.430;2022-08-01T09:36:58;20.00;99.90
22574;DHT22;11453;52.052;20.430;2022-08-01T09:41:52;20.10;99.90
22574;DHT22;11453;52.052;20.430;2022-08-01T09:44:18;20.10;99.90
22574;DHT22;11453;52.052;20.430;2022-08-01T09:46:54;20.20;99.90
22574;DHT22;11453;52.052;20.430;2022-08-01T09:49:55;20.30;99.90
22574;DHT22;11453;52.052;20.430;2022-08-01T09:52:24;20.40;99.90
22574;DHT22;11453;52.052;20.430;2022-08-01T09:57:19;20.50;99.90
22574;DHT22;11453;52.052;20.430;2022-08-01T09:59:48;20.60;99.90
22574;DHT22;11453;52.052;20.430;2022-08-01T10:02:30;20.70;99.90
22574;DHT22;11453;52.052;20.430;2022-08-01T10:04:56;20.80;99.90
22574;DHT22;11453;52.052;20.430;2022-08-01T10:07:22;21.00;99.80
22574;DHT22;11453;52.052;20.430;2022-08-01T10:09:48;21.00;99.70
22574;DHT22;11453;52.052;20.430;2022-08-01T10:12:17;21.10;99.60
22574;DHT22;11453;52.052;20.430;2022-08-01T10:14:45;21.20;99.40
22574;DHT22;11453;52.052;20.430;2022-08-01T10:17:13;21.20;98.70
22574;DHT22;11453;52.052;20.430;2022-08-01T10:19:41;21.30;98.20
22574;DHT22;11453;52.052;20.430;2022-08-01T10:22:12;21.50;97.80
22574;DHT22;11453;52.052;20.430;2022-08-01T10:24:43;21.60;97.10
22574;DHT22;11453;52.052;20.430;2022-08-01T10:27:11;21.80;96.70
22574;DHT22;11453;52.052;20.430;2022-08-01T10:30:11;22.00;96.50
22574;DHT22;11453;52.052;20.430;2022-08-01T10:32:36;22.30;95.60
22574;DHT22;11453;52.052;20.430;2022-08-01T10:35:04;22.40;94.70
22574;DHT22;11453;52.052;20.430;2022-08-01T10:37:30;22.60;95.00
22574;DHT22;11453;52.052;20.430;2022-08-01T10:39:56;22.80;94.80
22574;DHT22;11453;52.052;20.430;2022-08-01T10:42:22;23.10;94.20
22574;DHT22;11453;52.052;20.430;2022-08-01T10:44:49;23.40;93.80
22574;DHT22;11453;52.052;20.430;2022-08-01T10:47:25;23.60;93.60
22574;DHT22;11453;52.052;20.430;2022-08-01T10:50:13;23.90;93.30
22574;DHT22;11453;52.052;20.430;2022-08-01T10:52:41;24.10;92.20
22574;DHT22;11453;52.052;20.430;2022-08-01T10:55:08;24.10;88.40
22574;DHT22;11453;52.052;20.430;2022-08-01T10:57:47;24.20;89.00
22574;DHT22;11453;52.052;20.430;2022-08-01T11:00:19;24.40;89.90
22574;DHT22;11453;52.052;20.430;2022-08-01T11:03:02;24.60;90.40
22574;DHT22;11453;52.052;20.430;2022-08-01T11:05:33;24.90;90.60
22574;DHT22;11453;52.052;20.430;2022-08-01T11:08:09;25.10;87.70
22574;DHT22;11453;52.052;20.430;2022-08-01T11:10:42;25.40;87.40
22574;DHT22;11453;52.052;20.430;2022-08-01T11:13:11;25.50;85.20
22574;DHT22;11453;52.052;20.430;2022-08-01T11:15:38;25.60;85.10
22574;DHT22;11453;52.052;20.430;2022-08-01T11:20:58;25.90;83.00
22574;DHT22;11453;52.052;20.430;2022-08-01T11:23:26;25.90;79.80
22574;DHT22;11453;52.052;20.430;2022-08-01T11:28:23;26.10;78.10
22574;DHT22;11453;52.052;20.430;2022-08-01T11:30:50;26.10;74.20
22574;DHT22;11453;52.052;20.430;2022-08-01T11:33:18;26.00;74.80
22574;DHT22;11453;52.052;20.430;2022-08-01T11:44:15;26.20;74.60
22574;DHT22;11453;52.052;20.430;2022-08-01T11:46:49;26.30;74.30
22574;DHT22;11453;52.052;20.430;2022-08-01T11:54:56;26.80;72.60
22574;DHT22;11453;52.052;20.430;2022-08-01T11:57:30;26.90;71.20
22574;DHT22;11453;52.052;20.430;2022-08-01T11:59:57;27.00;69.40
22574;DHT22;11453;52.052;20.430;2022-08-01T12:02:24;27.10;67.30
22574;DHT22;11453;52.052;20.430;2022-08-01T12:05:02;27.20;66.10
22574;DHT22;11453;52.052;20.430;2022-08-01T12:07:30;27.10;66.40
22574;DHT22;11453;52.052;20.430;2022-08-01T12:10:29;27.20;67.80
22574;DHT22;11453;52.052;20.430;2022-08-01T12:13:05;27.40;69.20
22574;DHT22;11453;52.052;20.430;2022-08-01T12:15:36;27.60;65.50
22574;DHT22;11453;52.052;20.430;2022-08-01T12:18:05;27.80;65.80
22574;DHT22;11453;52.052;20.430;2022-08-01T12:20:34;28.00;63.70
22574;DHT22;11453;52.052;20.430;2022-08-01T12:23:05;28.20;62.90
22574;DHT22;11453;52.052;20.430;2022-08-01T12:25:35;28.40;63.30
22574;DHT22;11453;52.052;20.430;2022-08-01T12:28:03;28.80;61.90
22574;DHT22;11453;52.052;20.430;2022-08-01T12:30:30;29.10;58.70
22574;DHT22;11453;52.052;20.430;2022-08-01T12:32:57;29.30;58.80
22574;DHT22;11453;52.052;20.430;2022-08-01T12:35:25;29.70;59.00
22574;DHT22;11453;52.052;20.430;2022-08-01T12:37:52;29.80;57.00
22574;DHT22;11453;52.052;20.430;2022-08-01T12:40:26;30.00;57.50
22574;DHT22;11453;52.052;20.430;2022-08-01T12:42:57;30.30;57.10
22574;DHT22;11453;52.052;20.430;2022-08-01T12:45:25;30.50;56.40
22574;DHT22;11453;52.052;20.430;2022-08-01T12:47:53;30.60;55.50
22574;DHT22;11453;52.052;20.430;2022-08-01T12:50:20;30.70;55.80
22574;DHT22;11453;52.052;20.430;2022-08-01T12:52:48;31.10;56.30
22574;DHT22;11453;52.052;20.430;2022-08-01T12:55:15;31.70;54.40
22574;DHT22;11453;52.052;20.430;2022-08-01T12:57:46;32.60;53.20
22574;DHT22;11453;52.052;20.430;2022-08-01T13:00:21;33.50;49.30
22574;DHT22;11453;52.052;20.430;2022-08-01T13:02:47;34.10;48.00
22574;DHT22;11453;52.052;20.430;2022-08-01T13:05:14;34.30;46.70
22574;DHT22;11453;52.052;20.430;2022-08-01T13:07:47;34.60;45.80
22574;DHT22;11453;52.052;20.430;2022-08-01T13:10:15;34.70;45.50
22574;DHT22;11453;52.052;20.430;2022-08-01T13:12:51;34.30;45.50
22574;DHT22;11453;52.052;20.430;2022-08-01T13:17:50;33.80;47.30
22574;DHT22;11453;52.052;20.430;2022-08-01T13:20:26;33.60;47.40
22574;DHT22;11453;52.052;20.430;2022-08-01T13:22:52;33.90;47.80
22574;DHT22;11453;52.052;20.430;2022-08-01T13:25:18;34.60;47.70
22574;DHT22;11453;52.052;20.430;2022-08-01T13:27:45;35.30;45.90
22574;DHT22;11453;52.052;20.430;2022-08-01T13:32:37;36.20;44.90
22574;DHT22;11453;52.052;20.430;2022-08-01T13:35:06;35.90;44.50
22574;DHT22;11453;52.052;20.430;2022-08-01T13:37:32;35.50;44.60
22574;DHT22;11453;52.052;20.430;2022-08-01T13:39:57;35.00;45.00
22574;DHT22;11453;52.052;20.430;2022-08-01T13:42:24;34.50;44.80
22574;DHT22;11453;52.052;20.430;2022-08-01T13:44:49;33.90;45.50
22574;DHT22;11453;52.052;20.430;2022-08-01T13:47:15;33.50;46.50
22574;DHT22;11453;52.052;20.430;2022-08-01T13:49:41;33.10;47.10
22574;DHT22;11453;52.052;20.430;2022-08-01T13:52:07;33.10;47.10
22574;DHT22;11453;52.052;20.430;2022-08-01T13:54:33;33.10;47.20
22574;DHT22;11453;52.052;20.430;2022-08-01T13:56:59;32.70;47.40
22574;DHT22;11453;52.052;20.430;2022-08-01T13:59:24;32.70;47.70
22574;DHT22;11453;52.052;20.430;2022-08-01T14:01:50;32.50;47.50
22574;DHT22;11453;52.052;20.430;2022-08-01T14:04:16;32.10;48.00
22574;DHT22;11453;52.052;20.430;2022-08-01T14:06:41;31.70;48.40
22574;DHT22;11453;52.052;20.430;2022-08-01T14:09:07;31.20;49.10
22574;DHT22;11453;52.052;20.430;2022-08-01T14:11:35;30.70;49.80
22574;DHT22;11453;52.052;20.430;2022-08-01T14:14:00;30.20;50.70
22574;DHT22;11453;52.052;20.430;2022-08-01T14:16:26;29.70;51.50
22574;DHT22;11453;52.052;20.430;2022-08-01T14:18:52;29.30;52.80
22574;DHT22;11453;52.052;20.430;2022-08-01T14:21:17;28.80;53.40
22574;DHT22;11453;52.052;20.430;2022-08-01T14:23:44;28.50;54.10
22574;DHT22;11453;52.052;20.430;2022-08-01T14:26:10;28.20;54.70
22574;DHT22;11453;52.052;20.430;2022-08-01T14:28:37;27.90;55.50
22574;DHT22;11453;52.052;20.430;2022-08-01T14:31:03;27.60;56.30
22574;DHT22;11453;52.052;20.430;2022-08-01T14:33:29;27.50;57.10
22574;DHT22;11453;52.052;20.430;2022-08-01T14:35:56;27.30;57.40
22574;DHT22;11453;52.052;20.430;2022-08-01T14:38:21;27.20;57.90
22574;DHT22;11453;52.052;20.430;2022-08-01T14:40:47;27.20;58.40
22574;DHT22;11453;52.052;20.430;2022-08-01T14:43:17;27.30;58.40
22574;DHT22;11453;52.052;20.430;2022-08-01T14:45:43;27.50;58.20
22574;DHT22;11453;52.052;20.430;2022-08-01T14:48:09;27.50;58.40
22574;DHT22;11453;52.052;20.430;2022-08-01T14:50:35;27.30;59.10
22574;DHT22;11453;52.052;20.430;2022-08-01T14:53:00;27.20;58.70
22574;DHT22;11453;52.052;20.430;2022-08-01T14:55:26;27.00;58.70
22574;DHT22;11453;52.052;20.430;2022-08-01T14:57:52;26.80;59.30
22574;DHT22;11453;52.052;20.430;2022-08-01T15:00:18;26.70;59.70
22574;DHT22;11453;52.052;20.430;2022-08-01T15:02:45;26.60;60.40
22574;DHT22;11453;52.052;20.430;2022-08-01T15:05:11;26.50;60.40
22574;DHT22;11453;52.052;20.430;2022-08-01T15:07:37;26.40;60.80
22574;DHT22;11453;52.052;20.430;2022-08-01T15:10:04;26.30;61.40
22574;DHT22;11453;52.052;20.430;2022-08-01T15:12:30;26.20;61.60
22574;DHT22;11453;52.052;20.430;2022-08-01T15:14:56;26.20;62.20
22574;DHT22;11453;52.052;20.430;2022-08-01T15:17:30;26.20;62.20
22574;DHT22;11453;52.052;20.430;2022-08-01T15:20:03;26.10;63.10
22574;DHT22;11453;52.052;20.430;2022-08-01T15:22:29;26.00;63.50
22574;DHT22;11453;52.052;20.430;2022-08-01T15:24:57;26.00;64.00
22574;DHT22;11453;52.052;20.430;2022-08-01T15:27:23;25.90;64.20
22574;DHT22;11453;52.052;20.430;2022-08-01T15:29:49;25.80;64.50
22574;DHT22;11453;52.052;20.430;2022-08-01T15:32:15;25.70;65.10
22574;DHT22;11453;52.052;20.430;2022-08-01T15:34:42;25.60;65.90
22574;DHT22;11453;52.052;20.430;2022-08-01T15:37:08;25.40;66.30
22574;DHT22;11453;52.052;20.430;2022-08-01T15:39:34;25.40;66.70
22574;DHT22;11453;52.052;20.430;2022-08-01T15:42:11;25.20;67.30
22574;DHT22;11453;52.052;20.430;2022-08-01T15:44:37;25.20;68.00
22574;DHT22;11453;52.052;20.430;2022-08-01T15:47:04;25.10;67.90
22574;DHT22;11453;52.052;20.430;2022-08-01T15:49:30;25.00;67.90
22574;DHT22;11453;52.052;20.430;2022-08-01T15:51:56;25.00;68.40
22574;DHT22;11453;52.052;20.430;2022-08-01T15:54:22;24.90;69.00
22574;DHT22;11453;52.052;20.430;2022-08-01T15:56:48;24.90;69.50
22574;DHT22;11453;52.052;20.430;2022-08-01T15:59:14;24.80;69.90
22574;DHT22;11453;52.052;20.430;2022-08-01T16:01:40;24.80;70.40
22574;DHT22;11453;52.052;20.430;2022-08-01T16:04:06;24.80;70.80
22574;DHT22;11453;52.052;20.430;2022-08-01T16:06:32;24.70;70.30
22574;DHT22;11453;52.052;20.430;2022-08-01T16:08:58;24.60;70.20
22574;DHT22;11453;52.052;20.430;2022-08-01T16:11:24;24.60;70.40